createdAt,value
2022-09-27T00:01:11.853Z,98035.97
2022-09-27T00:03:39.662Z,98026.91
2022-09-27T00:06:11.621Z,98035.97
2022-09-27T00:08:38.781Z,98031.66
2022-09-27T00:11:13.558Z,98035.97
2022-09-27T00:13:40.882Z,98029.59
2022-09-27T00:16:07.909Z,98030.63
2022-09-27T00:18:35.131Z,98034.91
2022-09-27T00:21:13.616Z,98021.78
2022-09-27T00:23:41.412Z,98022.41
2022-09-27T00:26:12.489Z,98016.25
2022-09-27T00:28:39.450Z,98012.56
2022-09-27T00:31:20.961Z,98011.75
2022-09-27T00:33:53.342Z,98003.50
2022-09-27T00:36:21.871Z,98004.88
2022-09-27T00:38:49.942Z,98002.00
2022-09-27T00:41:23.348Z,98005.69
2022-09-27T00:44:01.202Z,97990.56
2022-09-27T00:46:44.334Z,97992.38
2022-09-27T00:49:29.194Z,97999.91
2022-09-27T00:52:03.219Z,97991.94
2022-09-27T00:54:33.694Z,97984.50
2022-09-27T00:57:02.067Z,97987.97
2022-09-27T01:00:03.380Z,97982.88
2022-09-27T01:02:31.637Z,97971.78
2022-09-27T01:04:59.664Z,97973.41
2022-09-27T01:07:26.652Z,97976.88
2022-09-27T01:09:54.026Z,97971.53
2022-09-27T01:12:39.116Z,97974.44
2022-09-27T01:15:32.752Z,97973.84
2022-09-27T01:18:20.045Z,97975.25
2022-09-27T01:21:24.607Z,97970.94
2022-09-27T01:24:54.955Z,97966.44
2022-09-27T01:27:47.927Z,97978.72
2022-09-27T01:30:23.482Z,97981.16
2022-09-27T01:33:15.319Z,97979.53
2022-09-27T01:36:16.114Z,97990.19
2022-09-27T01:39:23.238Z,97980.34
2022-09-27T01:42:22.446Z,97988.91
2022-09-27T01:45:21.228Z,97977.44
2022-09-27T01:48:14.510Z,97976.63
2022-09-27T01:51:20.247Z,97983.00
2022-09-27T01:58:56.331Z,97980.34
2022-09-27T02:01:28.036Z,97991.81
2022-09-27T02:03:59.088Z,97991.81
2022-09-27T02:06:59.133Z,98000.59
2022-09-27T02:10:02.627Z,97993.91
2022-09-27T02:13:05.959Z,97993.66
2022-09-27T02:15:57.560Z,97994.72
2022-09-27T02:19:02.649Z,97996.78
2022-09-27T02:21:55.754Z,97999.69
2022-09-27T02:24:40.352Z,97995.97
2022-09-27T02:27:22.610Z,97998.06
2022-09-27T02:30:02.458Z,98003.63
2022-09-27T02:32:31.031Z,97999.91
2022-09-27T02:35:02.608Z,98002.59
2022-09-27T02:37:30.342Z,98013.25
2022-09-27T02:39:58.014Z,98011.63
2022-09-27T02:42:26.004Z,98016.16
2022-09-27T02:44:53.292Z,98023.31
2022-09-27T02:48:13.213Z,98016.03
2022-09-27T02:51:37.430Z,98017.06
2022-09-27T02:54:40.834Z,98023.22
2022-09-27T02:57:41.384Z,98023.22
2022-09-27T03:00:21.351Z,98020.53
2022-09-27T03:03:32.027Z,98025.31
2022-09-27T03:06:06.556Z,98026.56
2022-09-27T03:08:33.694Z,98024.47
2022-09-27T03:11:00.995Z,98028.16
2022-09-27T03:13:28.354Z,98035.97
2022-09-27T03:16:00.779Z,98030.84
2022-09-27T03:18:47.491Z,98038.81
2022-09-27T03:21:33.037Z,98037.22
2022-09-27T03:24:00.051Z,98044.16
2022-09-27T03:26:28.633Z,98041.28
2022-09-27T03:28:55.775Z,98043.34
2022-09-27T03:31:22.867Z,98046.00
2022-09-27T03:34:22.165Z,98054.47
2022-09-27T03:36:49.386Z,98054.47
2022-09-27T03:39:16.588Z,98049.16
2022-09-27T03:41:43.718Z,98048.09
2022-09-27T03:44:10.932Z,98047.53
2022-09-27T03:46:37.945Z,98050.19
2022-09-27T03:49:05.182Z,98053.91
2022-09-27T03:51:32.201Z,98047.97
2022-09-27T03:53:59.265Z,98059.22
2022-09-27T03:56:26.255Z,98054.13
2022-09-27T03:58:53.340Z,98051.69
2022-09-27T04:01:20.769Z,98052.50
2022-09-27T04:03:53.470Z,98056.22
2022-09-27T04:06:27.141Z,98076.69
2022-09-27T04:08:54.573Z,98077.50
2022-09-27T04:11:24.482Z,98081.22
2022-09-27T04:13:52.552Z,98080.66
2022-09-27T04:16:22.040Z,98091.50
2022-09-27T04:18:54.617Z,98091.50
2022-09-27T04:21:44.457Z,98086.19
2022-09-27T04:24:12.919Z,98089.88
2022-09-27T04:26:49.090Z,98085.59
2022-09-27T04:29:22.648Z,98086.66
2022-09-27T04:31:52.559Z,98083.19
2022-09-27T04:34:56.904Z,98091.41
2022-09-27T04:37:27.048Z,98089.56
2022-09-27T04:40:01.226Z,98097.53
2022-09-27T04:42:28.841Z,98102.06
2022-09-27T04:44:55.970Z,98105.53
2022-09-27T04:47:23.216Z,98110.84
2022-09-27T04:49:50.213Z,98110.84
2022-09-27T04:52:17.280Z,98107.97
2022-09-27T04:54:44.365Z,98111.66
2022-09-27T04:57:12.784Z,98111.66
2022-09-27T04:59:41.516Z,98110.84
2022-09-27T05:02:08.733Z,98115.38
2022-09-27T05:04:58.817Z,98115.38
2022-09-27T05:07:28.950Z,98116.19
2022-09-27T05:10:02.233Z,98120.69
2022-09-27T05:12:29.877Z,98125.19
2022-09-27T05:14:59.750Z,98130.31
2022-09-27T05:17:52.372Z,98130.50
2022-09-27T05:20:38.047Z,98138.50
2022-09-27T05:23:27.839Z,98143.63
2022-09-27T05:25:56.399Z,98147.34
2022-09-27T05:28:26.608Z,98151.81
2022-09-27T05:30:53.596Z,98156.34
2022-09-27T05:33:22.276Z,98167.00
2022-09-27T05:35:57.071Z,98170.13
2022-09-27T05:38:30.108Z,98167.47
2022-09-27T05:40:59.592Z,98181.81
2022-09-27T05:43:28.261Z,98175.88
2022-09-27T05:45:57.180Z,98178.53
2022-09-27T05:48:24.349Z,98176.91
2022-09-27T05:51:04.621Z,98189.66
2022-09-27T05:53:32.452Z,98189.66
2022-09-27T05:56:04.535Z,98196.25
2022-09-27T05:58:51.765Z,98201.22
2022-09-27T06:01:19.871Z,98193.00
2022-09-27T06:04:06.757Z,98202.03
2022-09-27T06:06:58.848Z,98195.88
2022-09-27T06:09:28.143Z,98196.94
2022-09-27T06:11:56.753Z,98202.25
2022-09-27T06:14:24.062Z,98205.94
2022-09-27T06:16:58.896Z,98206.19
2022-09-27T06:19:30.153Z,98210.09
2022-09-27T06:21:57.234Z,98214.38
2022-09-27T06:24:28.075Z,98212.41
2022-09-27T06:26:57.064Z,98214.03
2022-09-27T06:29:37.515Z,98207.06
2022-09-27T06:32:07.925Z,98212.41
2022-09-27T06:34:47.127Z,98220.59
2022-09-27T06:37:15.223Z,98218.97
2022-09-27T06:39:42.438Z,98224.28
2022-09-27T06:42:32.996Z,98226.38
2022-09-27T06:45:17.888Z,98232.75
2022-09-27T06:48:17.404Z,98233.78
2022-09-27T06:50:49.676Z,98242.56
2022-09-27T06:53:17.599Z,98248.09
2022-09-27T06:55:45.347Z,98236.88
2022-09-27T06:58:31.836Z,98243.81
2022-09-27T07:01:18.131Z,98246.47
2022-09-27T07:04:24.666Z,98256.69
2022-09-27T07:07:10.511Z,98262.25
2022-09-27T07:09:40.136Z,98256.09
2022-09-27T07:12:07.764Z,98265.72
2022-09-27T07:14:35.226Z,98264.91
2022-09-27T07:17:03.455Z,98275.31
2022-09-27T07:19:35.850Z,98278.56
2022-09-27T07:22:02.916Z,98275.47
2022-09-27T07:24:30.151Z,98283.47
2022-09-27T07:26:57.173Z,98285.09
2022-09-27T07:29:24.339Z,98288.56
2022-09-27T07:31:53.310Z,98290.19
2022-09-27T07:34:20.427Z,98301.66
2022-09-27T07:36:47.454Z,98299.00
2022-09-27T07:39:14.670Z,98301.66
2022-09-27T07:41:43.575Z,98304.31
2022-09-27T07:44:11.925Z,98306.16
2022-09-27T07:46:51.110Z,98312.28
2022-09-27T07:49:21.650Z,98309.63
2022-09-27T07:52:05.296Z,98317.63
2022-09-27T07:54:42.726Z,98319.25
2022-09-27T07:57:32.608Z,98324.00
2022-09-27T08:00:01.450Z,98329.91
2022-09-27T08:02:28.479Z,98329.91
2022-09-27T08:04:56.286Z,98331.97
2022-09-27T08:07:26.889Z,98345.28
2022-09-27T08:09:55.801Z,98331.97
2022-09-27T08:12:23.575Z,98337.28
2022-09-27T08:14:51.116Z,98342.63
2022-09-27T08:17:19.416Z,98341.00
2022-09-27T08:20:06.995Z,98341.81
2022-09-27T08:22:57.178Z,98335.69
2022-09-27T08:25:32.617Z,98339.97
2022-09-27T08:28:18.017Z,98338.91
2022-09-27T08:30:59.151Z,98337.06
2022-09-27T08:33:31.932Z,98345.44
2022-09-27T08:36:01.707Z,98348.22
2022-09-27T08:38:29.022Z,98338.78
2022-09-27T08:41:17.365Z,98346.53
2022-09-27T08:44:17.657Z,98347.16
2022-09-27T08:47:29.373Z,98348.53
2022-09-27T08:50:11.080Z,98360.81
2022-09-27T08:52:55.920Z,98352.25
2022-09-27T08:56:03.685Z,98362.91
2022-09-27T08:58:41.442Z,98376.81
2022-09-27T09:01:29.443Z,98369.84
2022-09-27T09:04:06.018Z,98369.47
2022-09-27T09:06:59.860Z,98370.50
2022-09-27T09:09:54.011Z,98373.41
2022-09-27T09:12:50.122Z,98372.00
2022-09-27T09:16:24.843Z,98369.53
2022-09-27T09:19:27.092Z,98368.72
2022-09-27T09:22:25.931Z,98364.00
2022-09-27T09:25:06.511Z,98364.59
2022-09-27T09:28:04.300Z,98367.63
2022-09-27T09:31:15.249Z,98367.78
2022-09-27T09:33:52.521Z,98364.00
2022-09-27T09:36:43.256Z,98354.91
2022-09-27T09:39:32.607Z,98361.56
2022-09-27T09:42:13.418Z,98365.78
2022-09-27T09:45:31.171Z,98359.78
2022-09-27T09:48:15.267Z,98354.44
2022-09-27T09:50:51.175Z,98346.44
2022-09-27T09:53:39.224Z,98358.72
2022-09-27T09:56:21.951Z,98351.78
2022-09-27T09:59:02.481Z,98356.50
2022-09-27T10:01:45.334Z,98363.91
2022-09-27T10:04:25.599Z,98364.38
2022-09-27T10:06:54.990Z,98376.28
2022-09-27T10:09:27.092Z,98363.41
2022-09-27T10:12:14.327Z,98362.59
2022-09-27T10:14:47.118Z,98363.25
2022-09-27T10:17:19.999Z,98361.88
2022-09-27T10:19:54.134Z,98360.25
2022-09-27T10:22:36.644Z,98368.00
2022-09-27T10:25:12.072Z,98368.00
2022-09-27T10:27:55.823Z,98364.06
2022-09-27T10:30:35.267Z,98372.06
2022-09-27T10:33:19.861Z,98374.72
2022-09-27T10:35:53.243Z,98368.34
2022-09-27T10:38:36.635Z,98369.63
2022-09-27T10:41:24.983Z,98373.56
2022-09-27T10:44:18.648Z,98369.25
2022-09-27T10:46:56.581Z,98363.78
2022-09-27T10:49:41.681Z,98366.66
2022-09-27T10:52:27.223Z,98367.94
2022-09-27T10:55:05.731Z,98360.59
2022-09-27T10:57:33.135Z,98361.28
2022-09-27T11:00:08.313Z,98352.56
2022-09-27T11:02:39.831Z,98352.38
2022-09-27T11:05:31.055Z,98350.16
2022-09-27T11:08:02.942Z,98337.88
2022-09-27T11:11:13.838Z,98340.69
2022-09-27T11:13:58.612Z,98339.22
2022-09-27T11:17:05.278Z,98327.66
2022-09-27T11:19:59.134Z,98329.59
2022-09-27T11:23:03.028Z,98331.53
2022-09-27T11:26:17.312Z,98326.69
2022-09-27T11:29:14.589Z,98327.66
2022-09-27T11:32:19.433Z,98327.09
2022-09-27T11:35:21.423Z,98326.00
2022-09-27T11:38:34.541Z,98314.63
2022-09-27T11:41:37.031Z,98318.25
2022-09-27T11:44:43.946Z,98315.41
2022-09-27T11:47:41.723Z,98318.09
2022-09-27T11:50:25.950Z,98314.06
2022-09-27T11:53:14.454Z,98315.97
2022-09-27T11:56:13.799Z,98306.59
2022-09-27T11:59:29.386Z,98295.56
2022-09-27T12:02:34.138Z,98293.03
2022-09-27T12:05:36.590Z,98297.53
2022-09-27T12:08:08.756Z,98288.50
2022-09-27T12:10:39.011Z,98293.59
2022-09-27T12:13:10.284Z,98282.47
2022-09-27T12:15:43.156Z,98282.59
2022-09-27T12:18:29.395Z,98275.41
2022-09-27T12:21:02.231Z,98278.16
2022-09-27T12:23:54.618Z,98286.59
2022-09-27T12:26:43.902Z,98279.19
2022-09-27T12:29:36.250Z,98266.97
2022-09-27T12:32:27.513Z,98271.63
2022-09-27T12:35:00.088Z,98269.19
2022-09-27T12:37:47.389Z,98272.19
2022-09-27T12:40:29.613Z,98268.81
2022-09-27T12:43:06.662Z,98256.38
2022-09-27T12:46:03.425Z,98265.06
2022-09-27T12:48:45.985Z,98273.41
2022-09-27T12:51:19.216Z,98276.31
2022-09-27T12:54:32.187Z,98272.25
2022-09-27T12:57:29.623Z,98277.25
2022-09-27T13:00:12.755Z,98270.09
2022-09-27T13:03:15.423Z,98266.72
2022-09-27T13:06:12.310Z,98277.78
2022-09-27T13:09:25.243Z,98269.31
2022-09-27T13:12:03.384Z,98282.81
2022-09-27T13:14:39.185Z,98276.78
2022-09-27T13:17:06.317Z,98286.06
2022-09-27T13:19:36.129Z,98268.88
2022-09-27T13:22:31.226Z,98264.34
2022-09-27T13:25:50.618Z,98260.50
2022-09-27T13:28:32.709Z,98260.38
2022-09-27T13:31:14.050Z,98261.06
2022-09-27T13:33:51.613Z,98250.38
2022-09-27T13:36:33.631Z,98254.78
2022-09-27T13:39:11.781Z,98249.44
2022-09-27T13:42:16.977Z,98255.84
2022-09-27T13:45:18.258Z,98255.28
2022-09-27T13:47:49.538Z,98245.41
2022-09-27T13:51:04.878Z,98254.59
2022-09-27T13:53:46.486Z,98245.06
2022-09-27T13:56:47.061Z,98246.84
2022-09-27T13:59:28.413Z,98253.13
2022-09-27T14:02:31.420Z,98249.16
2022-09-27T14:05:01.372Z,98244.75
2022-09-27T14:07:40.624Z,98245.78
2022-09-27T14:10:16.468Z,98242.19
2022-09-27T14:12:45.750Z,98255.19
2022-09-27T14:15:39.606Z,98252.06
2022-09-27T14:18:11.987Z,98259.16
2022-09-27T14:20:43.482Z,98268.41
2022-09-27T14:23:39.716Z,98256.94
2022-09-27T14:26:24.309Z,98254.50
2022-09-27T14:28:52.143Z,98259.59
2022-09-27T14:31:26.762Z,98256.25
2022-09-27T14:34:12.566Z,98261.09
2022-09-27T14:37:20.857Z,98257.88
2022-09-27T14:40:06.644Z,98261.59
2022-09-27T14:42:36.986Z,98257.97
2022-09-27T14:45:40.142Z,98264.59
2022-09-27T14:48:27.446Z,98271.19
2022-09-27T14:51:19.346Z,98268.53
2022-09-27T14:54:00.564Z,98265.94
2022-09-27T14:56:34.614Z,98269.28
2022-09-27T14:59:09.266Z,98265.25
2022-09-27T15:01:39.258Z,98259.56
2022-09-27T15:04:12.250Z,98264.53
2022-09-27T15:06:39.727Z,98262.91
2022-09-27T15:09:10.067Z,98264.06
2022-09-27T15:11:39.287Z,98255.03
2022-09-27T15:14:07.561Z,98274.06
2022-09-27T15:16:34.744Z,98279.16
2022-09-27T15:19:14.238Z,98284.03
2022-09-27T15:21:41.258Z,98290.56
2022-09-27T15:24:44.595Z,98290.44
2022-09-27T15:27:18.600Z,98283.84
2022-09-27T15:29:58.205Z,98294.66
2022-09-27T15:32:28.511Z,98295.22
2022-09-27T15:34:56.909Z,98303.81
2022-09-27T15:37:35.330Z,98303.81
2022-09-27T15:40:20.874Z,98294.19
2022-09-27T15:43:00.173Z,98289.09
2022-09-27T15:45:36.514Z,98299.38
2022-09-27T15:48:18.123Z,98290.25
2022-09-27T15:50:46.848Z,98280.00
2022-09-27T15:53:36.601Z,98278.63
2022-09-27T15:56:08.487Z,98279.88
2022-09-27T15:58:37.206Z,98277.66
2022-09-27T16:01:06.058Z,98281.59
2022-09-27T16:03:33.681Z,98278.13
2022-09-27T16:06:03.533Z,98279.16
2022-09-27T16:08:30.591Z,98284.97
2022-09-27T16:10:59.058Z,98286.25
2022-09-27T16:13:31.806Z,98297.13
2022-09-27T16:16:02.276Z,98292.25
2022-09-27T16:18:30.892Z,98299.69
2022-09-27T16:20:59.447Z,98315.06
2022-09-27T16:23:26.389Z,98304.41
2022-09-27T16:25:53.801Z,98314.25
2022-09-27T16:28:20.989Z,98320.41
2022-09-27T16:30:48.132Z,98323.69
2022-09-27T16:33:15.409Z,98315.69
2022-09-27T16:35:42.408Z,98315.44
2022-09-27T16:38:09.551Z,98326.13
2022-09-27T16:40:37.812Z,98329.69
2022-09-27T16:43:07.234Z,98324.59
2022-09-27T16:45:39.068Z,98322.81
2022-09-27T16:48:06.027Z,98325.34
2022-09-27T16:50:51.198Z,98327.88
2022-09-27T16:53:18.337Z,98326.72
2022-09-27T16:55:45.257Z,98334.34
2022-09-27T16:58:12.203Z,98327.81
2022-09-27T17:00:41.941Z,98325.84
2022-09-27T17:03:09.074Z,98329.41
2022-09-27T17:05:35.996Z,98332.53
2022-09-27T17:08:03.048Z,98336.69
2022-09-27T17:10:31.639Z,98351.06
2022-09-27T17:12:58.625Z,98347.19
2022-09-27T17:15:25.902Z,98339.66
2022-09-27T17:17:53.187Z,98352.38
2022-09-27T17:20:20.132Z,98354.69
2022-09-27T17:22:47.051Z,98355.72
2022-09-27T17:25:14.040Z,98357.78
2022-09-27T17:27:40.964Z,98359.06
2022-09-27T17:30:08.631Z,98359.28
2022-09-27T17:32:35.649Z,98354.16
2022-09-27T17:35:02.887Z,98351.94
2022-09-27T17:37:30.227Z,98356.69
2022-09-27T17:39:57.562Z,98353.41
2022-09-27T17:42:25.267Z,98351.78
2022-09-27T17:44:52.268Z,98354.09
2022-09-27T17:47:37.579Z,98344.50
2022-09-27T17:50:23.488Z,98347.81
2022-09-27T17:52:51.704Z,98350.91
2022-09-27T17:55:18.851Z,98352.75
2022-09-27T17:57:50.334Z,98348.47
2022-09-27T18:00:19.032Z,98344.41
2022-09-27T18:02:46.307Z,98340.13
2022-09-27T18:05:13.702Z,98338.47
2022-09-27T18:07:40.714Z,98334.41
2022-09-27T18:10:08.042Z,98342.63
2022-09-27T18:12:35.276Z,98345.50
2022-09-27T18:15:03.513Z,98347.56
2022-09-27T18:17:30.933Z,98352.53
2022-09-27T18:19:59.997Z,98355.41
2022-09-27T18:22:31.011Z,98352.38
2022-09-27T18:24:58.013Z,98356.72
2022-09-27T18:27:25.049Z,98363.88
2022-09-27T18:29:52.529Z,98356.34
2022-09-27T18:32:19.506Z,98365.78
2022-09-27T18:34:46.543Z,98362.53
2022-09-27T18:37:13.866Z,98362.97
2022-09-27T18:39:40.926Z,98358.09
2022-09-27T18:42:08.996Z,98363.84
2022-09-27T18:44:36.053Z,98367.75
2022-09-27T18:47:03.099Z,98375.97
2022-09-27T18:49:33.796Z,98378.44
2022-09-27T18:52:02.542Z,98379.50
2022-09-27T18:54:29.767Z,98387.06
2022-09-27T18:56:58.604Z,98392.63
2022-09-27T18:59:25.566Z,98398.97
2022-09-27T19:01:52.705Z,98394.69
2022-09-27T19:04:24.061Z,98390.41
2022-09-27T19:06:55.566Z,98393.88
2022-09-27T19:09:23.419Z,98398.38
2022-09-27T19:11:50.488Z,98400.00
2022-09-27T19:14:21.313Z,98399.19
2022-09-27T19:16:49.085Z,98397.34
2022-09-27T19:19:17.574Z,98391.81
2022-09-27T19:21:45.190Z,98400.00
2022-09-27T19:24:15.128Z,98398.75
2022-09-27T19:26:42.566Z,98397.13
2022-09-27T19:29:10.579Z,98384.41
2022-09-27T19:31:37.643Z,98403.25
2022-09-27T19:34:04.652Z,98394.25
2022-09-27T19:36:31.650Z,98395.06
2022-09-27T19:38:59.121Z,98390.53
2022-09-27T19:41:26.999Z,98383.38
2022-09-27T19:43:55.936Z,98378.91
2022-09-27T19:46:24.721Z,98376.25
2022-09-27T19:48:58.043Z,98376.03
2022-09-27T19:51:27.285Z,98371.50
2022-09-27T19:53:54.833Z,98374.75
2022-09-27T19:56:23.203Z,98361.22
2022-09-27T19:58:50.426Z,98359.38
2022-09-27T20:01:24.105Z,98361.84
2022-09-27T20:03:55.156Z,98359.78
2022-09-27T20:06:22.293Z,98361.03
2022-09-27T20:08:49.597Z,98349.94
2022-09-27T20:11:22.275Z,98360.59
2022-09-27T20:13:51.612Z,98364.88
2022-09-27T20:16:22.361Z,98365.91
2022-09-27T20:18:56.031Z,98371.81
2022-09-27T20:21:27.285Z,98359.31
2022-09-27T20:23:56.716Z,98363.84
2022-09-27T20:26:27.134Z,98365.69
2022-09-27T20:28:57.063Z,98364.66
2022-09-27T20:31:30.154Z,98362.22
2022-09-27T20:33:57.361Z,98361.19
2022-09-27T20:36:29.008Z,98350.75
2022-09-27T20:39:03.301Z,98356.88
2022-09-27T20:41:34.450Z,98352.59
2022-09-27T20:44:07.896Z,98352.59
2022-09-27T20:46:36.761Z,98349.72
2022-09-27T20:49:09.631Z,98353.41
2022-09-27T20:51:39.591Z,98344.63
2022-09-27T20:54:09.324Z,98354.44
2022-09-27T20:56:46.173Z,98343.81
2022-09-27T20:59:17.278Z,98333.97
2022-09-27T21:01:47.007Z,98329.47
2022-09-27T21:04:16.816Z,98331.91
2022-09-27T21:06:44.845Z,98323.13
2022-09-27T21:09:18.388Z,98318.59
2022-09-27T21:11:51.957Z,98321.88
2022-09-27T21:14:19.186Z,98328.00
2022-09-27T21:16:46.147Z,98323.50
2022-09-27T21:19:13.565Z,98321.66
2022-09-27T21:21:40.757Z,98315.53
2022-09-27T21:24:07.813Z,98317.16
2022-09-27T21:26:35.265Z,98318.78
2022-09-27T21:29:08.380Z,98304.44
2022-09-27T21:31:36.212Z,98303.38
2022-09-27T21:34:05.171Z,98296.44
2022-09-27T21:36:38.226Z,98305.22
2022-09-27T21:39:08.459Z,98303.19
2022-09-27T21:41:36.502Z,98296.25
2022-09-27T21:44:06.064Z,98298.69
2022-09-27T21:46:33.672Z,98285.59
2022-09-27T21:49:02.259Z,98282.09
2022-09-27T21:51:36.855Z,98277.00
2022-09-27T21:54:07.708Z,98274.56
2022-09-27T21:56:38.573Z,98275.38
2022-09-27T21:59:11.371Z,98262.31
2022-09-27T22:01:38.903Z,98262.31
2022-09-27T22:04:07.932Z,98251.66
2022-09-27T22:06:37.709Z,98246.34
2022-09-27T22:09:14.011Z,98243.09
2022-09-27T22:11:47.283Z,98236.75
2022-09-27T22:14:19.436Z,98228.75
2022-09-27T22:16:47.742Z,98233.03
2022-09-27T22:19:16.035Z,98230.38
2022-09-27T22:21:43.696Z,98224.03
2022-09-27T22:24:17.640Z,98227.50
2022-09-27T22:26:50.724Z,98227.25
2022-09-27T22:29:18.654Z,98212.91
2022-09-27T22:31:45.881Z,98208.22
2022-09-27T22:34:28.528Z,98208.44
2022-09-27T22:37:00.740Z,98198.38
2022-09-27T22:39:27.761Z,98186.69
2022-09-27T22:41:54.721Z,98185.88
2022-09-27T22:44:22.707Z,98182.75
2022-09-27T22:46:49.757Z,98188.09
2022-09-27T22:49:16.825Z,98177.25
2022-09-27T22:51:43.832Z,98166.59
2022-09-27T22:54:10.788Z,98158.38
2022-09-27T22:56:37.764Z,98153.63
2022-09-27T22:59:04.765Z,98156.88
2022-09-27T23:01:31.682Z,98161.38
2022-09-27T23:03:59.268Z,98159.34
2022-09-27T23:06:26.312Z,98151.13
2022-09-27T23:08:54.983Z,98135.16
2022-09-27T23:11:22.677Z,98135.16
2022-09-27T23:13:50.801Z,98133.06
2022-09-27T23:16:23.360Z,98136.53
2022-09-27T23:18:56.453Z,98125.66
2022-09-27T23:21:25.783Z,98120.94
2022-09-27T23:23:55.189Z,98120.13
2022-09-27T23:26:25.943Z,98116.19
2022-09-27T23:28:57.929Z,98107.16
2022-09-27T23:31:28.064Z,98103.47
2022-09-27T23:33:56.112Z,98098.13
2022-09-27T23:36:26.717Z,98086.47
2022-09-27T23:38:57.724Z,98085.44
2022-09-27T23:41:24.848Z,98088.91
2022-09-27T23:43:53.310Z,98079.88
2022-09-27T23:46:21.234Z,98076.97
2022-09-27T23:48:48.614Z,98074.31
2022-09-27T23:51:15.716Z,98062.84
2022-09-27T23:53:44.423Z,98053.03
2022-09-27T23:56:17.055Z,98050.34
2022-09-27T23:58:46.016Z,98047.69
